sensor_id;sensor_type;location;lat;lon;timestamp;P1;durP1;ratioP1;P2;durP2;ratioP2
57409;SDS011;46044;44.738;20.394;2022-10-19T06:32:21;42.50;;;19.85;;
57409;SDS011;46044;44.738;20.394;2022-10-19T06:34:47;46.40;;;17.83;;
57409;SDS011;46044;44.738;20.394;2022-10-19T06:37:13;36.72;;;16.92;;
57409;SDS011;46044;44.738;20.394;2022-10-19T06:39:40;37.28;;;17.50;;
57409;SDS011;46044;44.738;20.394;2022-10-19T06:42:05;35.33;;;18.27;;
57409;SDS011;46044;44.738;20.394;2022-10-19T06:44:33;32.25;;;17.83;;
57409;SDS011;46044;44.738;20.394;2022-10-19T06:47:00;41.30;;;16.15;;
57409;SDS011;46044;44.738;20.394;2022-10-19T06:49:27;37.10;;;19.30;;
57409;SDS011;46044;44.738;20.394;2022-10-19T06:51:53;33.70;;;17.00;;
57409;SDS011;46044;44.738;20.394;2022-10-19T06:54:19;29.85;;;15.80;;
57409;SDS011;46044;44.738;20.394;2022-10-19T06:56:46;30.85;;;16.83;;
57409;SDS011;46044;44.738;20.394;2022-10-19T06:59:12;28.25;;;14.00;;
57409;SDS011;46044;44.738;20.394;2022-10-19T07:01:39;27.63;;;15.70;;
57409;SDS011;46044;44.738;20.394;2022-10-19T07:04:07;26.15;;;14.52;;
57409;SDS011;46044;44.738;20.394;2022-10-19T07:06:38;28.10;;;15.15;;
57409;SDS011;46044;44.738;20.394;2022-10-19T07:09:04;41.17;;;22.30;;
57409;SDS011;46044;44.738;20.394;2022-10-19T07:11:30;33.13;;;16.90;;
57409;SDS011;46044;44.738;20.394;2022-10-19T07:13:56;30.80;;;16.33;;
57409;SDS011;46044;44.738;20.394;2022-10-19T07:16:22;29.58;;;15.80;;
57409;SDS011;46044;44.738;20.394;2022-10-19T07:18:51;25.60;;;14.55;;
57409;SDS011;46044;44.738;20.394;2022-10-19T07:21:18;26.73;;;13.00;;
57409;SDS011;46044;44.738;20.394;2022-10-19T07:23:45;28.13;;;14.63;;
57409;SDS011;46044;44.738;20.394;2022-10-19T07:26:15;26.83;;;13.70;;
57409;SDS011;46044;44.738;20.394;2022-10-19T07:28:43;28.52;;;13.85;;
57409;SDS011;46044;44.738;20.394;2022-10-19T07:31:10;23.25;;;12.82;;
57409;SDS011;46044;44.738;20.394;2022-10-19T07:33:37;26.27;;;14.23;;
57409;SDS011;46044;44.738;20.394;2022-10-19T07:36:04;31.98;;;14.00;;
57409;SDS011;46044;44.738;20.394;2022-10-19T07:38:32;23.55;;;14.18;;
57409;SDS011;46044;44.738;20.394;2022-10-19T07:41:00;29.92;;;16.83;;
57409;SDS011;46044;44.738;20.394;2022-10-19T07:43:34;30.50;;;14.48;;
57409;SDS011;46044;44.738;20.394;2022-10-19T07:46:01;28.17;;;13.85;;
57409;SDS011;46044;44.738;20.394;2022-10-19T07:48:27;28.05;;;14.75;;
57409;SDS011;46044;44.738;20.394;2022-10-19T07:50:54;29.20;;;14.68;;
57409;SDS011;46044;44.738;20.394;2022-10-19T07:53:20;28.33;;;14.48;;
57409;SDS011;46044;44.738;20.394;2022-10-19T07:55:47;23.40;;;14.18;;
57409;SDS011;46044;44.738;20.394;2022-10-19T07:58:13;87.57;;;15.23;;
57409;SDS011;46044;44.738;20.394;2022-10-19T08:00:39;23.98;;;13.38;;
57409;SDS011;46044;44.738;20.394;2022-10-19T08:03:05;22.63;;;12.88;;
57409;SDS011;46044;44.738;20.394;2022-10-19T08:05:31;23.67;;;13.27;;
57409;SDS011;46044;44.738;20.394;2022-10-19T08:07:58;28.00;;;13.65;;
57409;SDS011;46044;44.738;20.394;2022-10-19T08:10:25;23.48;;;13.07;;
57409;SDS011;46044;44.738;20.394;2022-10-19T08:12:51;26.40;;;13.13;;
57409;SDS011;46044;44.738;20.394;2022-10-19T08:15:17;19.85;;;11.88;;
57409;SDS011;46044;44.738;20.394;2022-10-19T08:17:43;22.35;;;12.35;;
57409;SDS011;46044;44.738;20.394;2022-10-19T08:20:09;22.45;;;12.48;;
57409;SDS011;46044;44.738;20.394;2022-10-19T08:22:35;23.23;;;12.07;;
57409;SDS011;46044;44.738;20.394;2022-10-19T08:25:01;21.65;;;11.55;;
57409;SDS011;46044;44.738;20.394;2022-10-19T08:27:27;19.88;;;12.43;;
57409;SDS011;46044;44.738;20.394;2022-10-19T08:29:54;23.42;;;13.48;;
57409;SDS011;46044;44.738;20.394;2022-10-19T08:32:20;21.38;;;12.38;;
57409;SDS011;46044;44.738;20.394;2022-10-19T08:34:46;19.52;;;11.30;;
57409;SDS011;46044;44.738;20.394;2022-10-19T08:37:12;19.90;;;11.60;;
57409;SDS011;46044;44.738;20.394;2022-10-19T08:39:38;19.17;;;11.48;;
57409;SDS011;46044;44.738;20.394;2022-10-19T08:42:11;21.45;;;11.80;;
57409;SDS011;46044;44.738;20.394;2022-10-19T08:45:02;19.65;;;11.88;;
57409;SDS011;46044;44.738;20.394;2022-10-19T08:47:50;20.13;;;12.90;;
57409;SDS011;46044;44.738;20.394;2022-10-19T08:50:50;21.05;;;12.05;;
57409;SDS011;46044;44.738;20.394;2022-10-19T08:53:19;22.05;;;14.18;;
57409;SDS011;46044;44.738;20.394;2022-10-19T08:55:57;18.77;;;12.90;;
57409;SDS011;46044;44.738;20.394;2022-10-19T09:01:26;19.27;;;12.15;;
57409;SDS011;46044;44.738;20.394;2022-10-19T09:09:27;16.25;;;10.35;;
57409;SDS011;46044;44.738;20.394;2022-10-19T09:11:57;19.65;;;12.82;;
57409;SDS011;46044;44.738;20.394;2022-10-19T09:14:30;19.83;;;12.05;;
57409;SDS011;46044;44.738;20.394;2022-10-19T09:17:13;14.80;;;10.02;;
57409;SDS011;46044;44.738;20.394;2022-10-19T09:19:41;17.15;;;10.10;;
57409;SDS011;46044;44.738;20.394;2022-10-19T09:22:20;14.63;;;9.80;;
57409;SDS011;46044;44.738;20.394;2022-10-19T09:24:50;16.52;;;8.70;;
57409;SDS011;46044;44.738;20.394;2022-10-19T09:27:22;15.73;;;9.57;;
57409;SDS011;46044;44.738;20.394;2022-10-19T09:29:58;15.18;;;9.80;;
57409;SDS011;46044;44.738;20.394;2022-10-19T09:32:32;15.65;;;10.00;;
57409;SDS011;46044;44.738;20.394;2022-10-19T09:35:02;14.30;;;9.77;;
57409;SDS011;46044;44.738;20.394;2022-10-19T09:37:30;15.63;;;9.65;;
57409;SDS011;46044;44.738;20.394;2022-10-19T09:40:01;12.75;;;8.30;;
57409;SDS011;46044;44.738;20.394;2022-10-19T09:45:00;14.70;;;9.77;;
57409;SDS011;46044;44.738;20.394;2022-10-19T09:47:39;14.13;;;8.90;;
57409;SDS011;46044;44.738;20.394;2022-10-19T09:52:38;15.85;;;8.98;;
57409;SDS011;46044;44.738;20.394;2022-10-19T09:57:41;16.55;;;8.38;;
57409;SDS011;46044;44.738;20.394;2022-10-19T10:00:24;14.82;;;8.90;;
57409;SDS011;46044;44.738;20.394;2022-10-19T10:02:58;18.17;;;8.30;;
57409;SDS011;46044;44.738;20.394;2022-10-19T10:05:30;12.20;;;8.30;;
57409;SDS011;46044;44.738;20.394;2022-10-19T10:07:59;14.57;;;8.63;;
57409;SDS011;46044;44.738;20.394;2022-10-19T10:10:44;15.40;;;10.18;;
57409;SDS011;46044;44.738;20.394;2022-10-19T10:13:16;83.30;;;48.90;;
57409;SDS011;46044;44.738;20.394;2022-10-19T10:15:47;115.50;;;64.50;;
57409;SDS011;46044;44.738;20.394;2022-10-19T10:18:29;91.80;;;54.55;;
57409;SDS011;46044;44.738;20.394;2022-10-19T10:21:01;70.00;;;40.30;;
57409;SDS011;46044;44.738;20.394;2022-10-19T10:23:40;73.90;;;39.63;;
57409;SDS011;46044;44.738;20.394;2022-10-19T10:26:24;42.75;;;24.73;;
57409;SDS011;46044;44.738;20.394;2022-10-19T10:28:55;42.28;;;22.92;;
57409;SDS011;46044;44.738;20.394;2022-10-19T10:31:25;17.17;;;9.38;;
57409;SDS011;46044;44.738;20.394;2022-10-19T10:33:54;37.03;;;20.52;;
57409;SDS011;46044;44.738;20.394;2022-10-19T10:39:00;38.90;;;22.45;;
57409;SDS011;46044;44.738;20.394;2022-10-19T10:41:38;40.15;;;22.60;;
57409;SDS011;46044;44.738;20.394;2022-10-19T10:44:13;32.80;;;19.40;;
57409;SDS011;46044;44.738;20.394;2022-10-19T10:46:54;28.73;;;16.85;;
57409;SDS011;46044;44.738;20.394;2022-10-19T10:49:25;29.38;;;16.00;;
57409;SDS011;46044;44.738;20.394;2022-10-19T10:52:03;24.85;;;14.15;;
57409;SDS011;46044;44.738;20.394;2022-10-19T10:54:32;21.77;;;13.50;;
57409;SDS011;46044;44.738;20.394;2022-10-19T10:59:30;20.27;;;10.30;;
57409;SDS011;46044;44.738;20.394;2022-10-19T11:02:03;24.35;;;14.15;;
57409;SDS011;46044;44.738;20.394;2022-10-19T11:04:51;20.73;;;12.43;;
57409;SDS011;46044;44.738;20.394;2022-10-19T11:07:23;26.40;;;12.20;;
57409;SDS011;46044;44.738;20.394;2022-10-19T11:10:02;18.02;;;9.23;;
57409;SDS011;46044;44.738;20.394;2022-10-19T11:12:38;15.75;;;9.88;;
57409;SDS011;46044;44.738;20.394;2022-10-19T11:15:21;21.73;;;11.73;;
57409;SDS011;46044;44.738;20.394;2022-10-19T11:20:40;14.98;;;8.80;;
57409;SDS011;46044;44.738;20.394;2022-10-19T11:23:45;14.40;;;9.32;;
57409;SDS011;46044;44.738;20.394;2022-10-19T11:28:57;14.50;;;9.13;;
57409;SDS011;46044;44.738;20.394;2022-10-19T11:34:37;99.13;;;51.00;;
57409;SDS011;46044;44.738;20.394;2022-10-19T11:40:19;53.50;;;28.67;;
57409;SDS011;46044;44.738;20.394;2022-10-19T11:43:10;31.55;;;18.00;;
57409;SDS011;46044;44.738;20.394;2022-10-19T11:48:16;16.05;;;9.68;;
57409;SDS011;46044;44.738;20.394;2022-10-19T11:51:07;23.65;;;9.93;;
57409;SDS011;46044;44.738;20.394;2022-10-19T12:02:30;15.82;;;8.32;;
57409;SDS011;46044;44.738;20.394;2022-10-19T12:11:20;13.88;;;9.00;;
57409;SDS011;46044;44.738;20.394;2022-10-19T12:14:04;18.40;;;8.60;;
57409;SDS011;46044;44.738;20.394;2022-10-19T12:16:37;19.08;;;9.55;;
57409;SDS011;46044;44.738;20.394;2022-10-19T12:19:11;17.88;;;9.10;;
57409;SDS011;46044;44.738;20.394;2022-10-19T12:24:22;17.42;;;9.48;;
57409;SDS011;46044;44.738;20.394;2022-10-19T12:26:52;15.50;;;10.07;;
57409;SDS011;46044;44.738;20.394;2022-10-19T12:29:23;18.67;;;9.32;;
57409;SDS011;46044;44.738;20.394;2022-10-19T12:31:54;21.45;;;10.98;;
57409;SDS011;46044;44.738;20.394;2022-10-19T12:36:58;23.35;;;9.75;;
57409;SDS011;46044;44.738;20.394;2022-10-19T12:39:52;18.23;;;10.48;;
57409;SDS011;46044;44.738;20.394;2022-10-19T13:01:10;26.40;;;13.85;;
57409;SDS011;46044;44.738;20.394;2022-10-19T13:03:40;17.98;;;11.52;;
57409;SDS011;46044;44.738;20.394;2022-10-19T13:08:55;19.55;;;11.48;;
57409;SDS011;46044;44.738;20.394;2022-10-19T13:11:24;18.65;;;10.98;;
57409;SDS011;46044;44.738;20.394;2022-10-19T13:13:58;18.77;;;10.75;;
57409;SDS011;46044;44.738;20.394;2022-10-19T13:21:47;20.42;;;11.63;;
57409;SDS011;46044;44.738;20.394;2022-10-19T13:43:19;21.98;;;11.80;;
57409;SDS011;46044;44.738;20.394;2022-10-19T13:45:53;21.40;;;11.63;;
57409;SDS011;46044;44.738;20.394;2022-10-19T13:48:23;25.15;;;11.57;;
57409;SDS011;46044;44.738;20.394;2022-10-19T13:50:56;18.50;;;11.10;;
57409;SDS011;46044;44.738;20.394;2022-10-19T13:53:34;20.27;;;12.20;;
57409;SDS011;46044;44.738;20.394;2022-10-19T14:06:16;21.98;;;11.80;;
57409;SDS011;46044;44.738;20.394;2022-10-19T14:09:22;20.70;;;11.52;;
57409;SDS011;46044;44.738;20.394;2022-10-19T14:12:01;20.13;;;11.57;;
57409;SDS011;46044;44.738;20.394;2022-10-19T14:14:41;25.00;;;12.77;;
57409;SDS011;46044;44.738;20.394;2022-10-19T14:17:16;21.70;;;12.32;;
57409;SDS011;46044;44.738;20.394;2022-10-19T14:19:57;19.10;;;11.15;;
57409;SDS011;46044;44.738;20.394;2022-10-19T14:28:01;20.17;;;12.32;;
57409;SDS011;46044;44.738;20.394;2022-10-19T14:30:31;19.60;;;11.88;;
57409;SDS011;46044;44.738;20.394;2022-10-19T14:33:00;20.85;;;12.27;;
57409;SDS011;46044;44.738;20.394;2022-10-19T14:35:33;24.27;;;12.10;;
57409;SDS011;46044;44.738;20.394;2022-10-19T14:38:05;19.83;;;11.70;;
57409;SDS011;46044;44.738;20.394;2022-10-19T14:40:36;20.08;;;11.48;;
57409;SDS011;46044;44.738;20.394;2022-10-19T14:43:20;19.92;;;11.95;;
57409;SDS011;46044;44.738;20.394;2022-10-19T14:48:34;18.67;;;11.63;;
57409;SDS011;46044;44.738;20.394;2022-10-19T14:51:13;18.45;;;11.18;;
57409;SDS011;46044;44.738;20.394;2022-10-19T14:56:19;20.35;;;11.65;;
57409;SDS011;46044;44.738;20.394;2022-10-19T15:01:47;20.25;;;11.73;;
57409;SDS011;46044;44.738;20.394;2022-10-19T15:04:19;18.70;;;11.20;;
57409;SDS011;46044;44.738;20.394;2022-10-19T15:06:49;21.50;;;10.57;;
57409;SDS011;46044;44.738;20.394;2022-10-19T15:09:23;18.70;;;10.48;;
57409;SDS011;46044;44.738;20.394;2022-10-19T15:11:54;19.13;;;11.25;;
57409;SDS011;46044;44.738;20.394;2022-10-19T15:14:33;19.33;;;11.05;;
57409;SDS011;46044;44.738;20.394;2022-10-19T15:17:01;19.00;;;11.55;;
57409;SDS011;46044;44.738;20.394;2022-10-19T15:19:31;24.33;;;11.25;;
57409;SDS011;46044;44.738;20.394;2022-10-19T15:27:21;18.42;;;10.00;;
57409;SDS011;46044;44.738;20.394;2022-10-19T15:29:55;21.73;;;10.80;;
57409;SDS011;46044;44.738;20.394;2022-10-19T15:32:45;18.90;;;10.80;;
57409;SDS011;46044;44.738;20.394;2022-10-19T15:35:19;18.00;;;11.30;;
57409;SDS011;46044;44.738;20.394;2022-10-19T15:37:59;18.30;;;10.60;;
57409;SDS011;46044;44.738;20.394;2022-10-19T15:40:38;18.85;;;11.32;;
57409;SDS011;46044;44.738;20.394;2022-10-19T15:46:05;22.17;;;11.23;;
57409;SDS011;46044;44.738;20.394;2022-10-19T15:53:53;54.28;;;27.05;;
57409;SDS011;46044;44.738;20.394;2022-10-19T15:56:19;25.10;;;14.30;;
57409;SDS011;46044;44.738;20.394;2022-10-19T15:58:48;29.20;;;13.80;;
57409;SDS011;46044;44.738;20.394;2022-10-19T16:01:19;26.15;;;13.50;;
57409;SDS011;46044;44.738;20.394;2022-10-19T16:03:48;27.38;;;14.50;;
57409;SDS011;46044;44.738;20.394;2022-10-19T16:06:15;30.67;;;14.95;;
57409;SDS011;46044;44.738;20.394;2022-10-19T16:08:42;27.75;;;14.88;;
57409;SDS011;46044;44.738;20.394;2022-10-19T16:11:12;27.40;;;13.88;;
57409;SDS011;46044;44.738;20.394;2022-10-19T16:13:38;25.98;;;13.95;;
57409;SDS011;46044;44.738;20.394;2022-10-19T16:16:05;24.23;;;13.38;;
57409;SDS011;46044;44.738;20.394;2022-10-19T16:18:34;23.80;;;13.20;;
57409;SDS011;46044;44.738;20.394;2022-10-19T16:21:00;23.55;;;12.32;;
57409;SDS011;46044;44.738;20.394;2022-10-19T16:23:26;22.42;;;12.55;;
57409;SDS011;46044;44.738;20.394;2022-10-19T16:25:52;26.08;;;13.32;;
57409;SDS011;46044;44.738;20.394;2022-10-19T16:28:19;22.25;;;13.60;;
57409;SDS011;46044;44.738;20.394;2022-10-19T16:30:50;27.20;;;13.45;;
57409;SDS011;46044;44.738;20.394;2022-10-19T16:33:16;23.75;;;13.75;;
57409;SDS011;46044;44.738;20.394;2022-10-19T16:35:43;29.50;;;15.05;;
57409;SDS011;46044;44.738;20.394;2022-10-19T16:38:10;24.25;;;14.00;;
57409;SDS011;46044;44.738;20.394;2022-10-19T16:40:36;24.42;;;13.77;;
57409;SDS011;46044;44.738;20.394;2022-10-19T16:43:02;26.30;;;14.52;;
57409;SDS011;46044;44.738;20.394;2022-10-19T16:45:29;34.17;;;17.77;;
57409;SDS011;46044;44.738;20.394;2022-10-19T16:47:56;26.60;;;13.95;;
57409;SDS011;46044;44.738;20.394;2022-10-19T16:50:22;26.27;;;14.50;;
57409;SDS011;46044;44.738;20.394;2022-10-19T16:53:05;25.80;;;13.18;;
57409;SDS011;46044;44.738;20.394;2022-10-19T16:55:35;22.30;;;13.18;;
57409;SDS011;46044;44.738;20.394;2022-10-19T16:58:05;24.08;;;14.45;;
57409;SDS011;46044;44.738;20.394;2022-10-19T17:00:31;30.42;;;16.48;;
57409;SDS011;46044;44.738;20.394;2022-10-19T17:02:57;27.45;;;16.10;;
57409;SDS011;46044;44.738;20.394;2022-10-19T17:05:23;23.65;;;13.50;;
57409;SDS011;46044;44.738;20.394;2022-10-19T17:07:50;21.85;;;13.80;;
57409;SDS011;46044;44.738;20.394;2022-10-19T17:10:16;25.55;;;14.05;;
57409;SDS011;46044;44.738;20.394;2022-10-19T17:12:43;22.88;;;13.98;;
57409;SDS011;46044;44.738;20.394;2022-10-19T17:15:10;28.10;;;13.77;;
57409;SDS011;46044;44.738;20.394;2022-10-19T17:17:42;26.48;;;15.32;;
57409;SDS011;46044;44.738;20.394;2022-10-19T17:20:08;25.08;;;13.88;;
57409;SDS011;46044;44.738;20.394;2022-10-19T17:22:35;24.60;;;12.73;;
57409;SDS011;46044;44.738;20.394;2022-10-19T17:25:02;22.10;;;12.63;;
57409;SDS011;46044;44.738;20.394;2022-10-19T17:27:28;23.58;;;13.40;;
57409;SDS011;46044;44.738;20.394;2022-10-19T17:29:54;24.77;;;13.68;;
57409;SDS011;46044;44.738;20.394;2022-10-19T17:32:20;23.00;;;13.43;;
57409;SDS011;46044;44.738;20.394;2022-10-19T17:34:47;21.80;;;11.25;;
57409;SDS011;46044;44.738;20.394;2022-10-19T17:37:13;21.17;;;12.02;;
57409;SDS011;46044;44.738;20.394;2022-10-19T17:39:39;22.50;;;12.05;;
57409;SDS011;46044;44.738;20.394;2022-10-19T17:42:05;18.58;;;10.88;;
57409;SDS011;46044;44.738;20.394;2022-10-19T17:44:31;20.27;;;11.73;;
57409;SDS011;46044;44.738;20.394;2022-10-19T17:46:58;18.80;;;11.10;;
57409;SDS011;46044;44.738;20.394;2022-10-19T17:49:25;26.48;;;11.82;;
57409;SDS011;46044;44.738;20.394;2022-10-19T17:51:51;19.83;;;11.10;;
57409;SDS011;46044;44.738;20.394;2022-10-19T17:54:18;18.90;;;10.63;;
57409;SDS011;46044;44.738;20.394;2022-10-19T17:56:44;20.85;;;11.43;;
57409;SDS011;46044;44.738;20.394;2022-10-19T17:59:10;18.17;;;9.80;;
57409;SDS011;46044;44.738;20.394;2022-10-19T18:01:36;15.35;;;9.68;;
57409;SDS011;46044;44.738;20.394;2022-10-19T18:04:03;17.90;;;9.30;;
57409;SDS011;46044;44.738;20.394;2022-10-19T18:06:31;18.20;;;9.13;;
57409;SDS011;46044;44.738;20.394;2022-10-19T18:09:00;15.57;;;8.45;;
57409;SDS011;46044;44.738;20.394;2022-10-19T18:11:31;20.00;;;8.15;;
57409;SDS011;46044;44.738;20.394;2022-10-19T18:14:03;16.23;;;7.95;;
57409;SDS011;46044;44.738;20.394;2022-10-19T18:16:35;14.52;;;8.18;;
57409;SDS011;46044;44.738;20.394;2022-10-19T18:19:04;11.77;;;6.97;;
57409;SDS011;46044;44.738;20.394;2022-10-19T18:21:36;15.07;;;6.95;;
57409;SDS011;46044;44.738;20.394;2022-10-19T18:24:04;13.47;;;6.97;;
57409;SDS011;46044;44.738;20.394;2022-10-19T18:26:31;12.60;;;6.25;;
57409;SDS011;46044;44.738;20.394;2022-10-19T18:28:59;15.85;;;6.82;;
57409;SDS011;46044;44.738;20.394;2022-10-19T18:31:27;12.02;;;6.60;;
57409;SDS011;46044;44.738;20.394;2022-10-19T18:34:01;12.57;;;6.18;;
57409;SDS011;46044;44.738;20.394;2022-10-19T18:36:28;13.05;;;5.70;;
57409;SDS011;46044;44.738;20.394;2022-10-19T18:38:56;12.13;;;6.03;;
57409;SDS011;46044;44.738;20.394;2022-10-19T18:41:23;12.52;;;5.65;;
57409;SDS011;46044;44.738;20.394;2022-10-19T18:43:51;12.13;;;5.50;;
57409;SDS011;46044;44.738;20.394;2022-10-19T18:46:19;13.02;;;5.88;;
57409;SDS011;46044;44.738;20.394;2022-10-19T18:48:47;10.88;;;5.53;;
57409;SDS011;46044;44.738;20.394;2022-10-19T18:51:16;10.90;;;5.97;;
57409;SDS011;46044;44.738;20.394;2022-10-19T18:53:43;9.73;;;5.75;;
57409;SDS011;46044;44.738;20.394;2022-10-19T18:56:15;9.77;;;5.47;;
57409;SDS011;46044;44.738;20.394;2022-10-19T18:58:42;12.98;;;6.47;;
57409;SDS011;46044;44.738;20.394;2022-10-19T19:01:28;10.88;;;6.15;;
57409;SDS011;46044;44.738;20.394;2022-10-19T19:03:58;9.43;;;5.93;;
57409;SDS011;46044;44.738;20.394;2022-10-19T19:06:32;13.75;;;6.18;;
57409;SDS011;46044;44.738;20.394;2022-10-19T19:09:01;11.63;;;6.25;;
57409;SDS011;46044;44.738;20.394;2022-10-19T19:11:30;10.20;;;6.20;;
57409;SDS011;46044;44.738;20.394;2022-10-19T19:13:59;13.02;;;6.00;;
57409;SDS011;46044;44.738;20.394;2022-10-19T19:16:28;17.73;;;5.93;;
57409;SDS011;46044;44.738;20.394;2022-10-19T19:18:58;11.77;;;6.13;;
57409;SDS011;46044;44.738;20.394;2022-10-19T19:21:25;13.55;;;6.38;;
57409;SDS011;46044;44.738;20.394;2022-10-19T19:23:56;11.88;;;5.93;;
57409;SDS011;46044;44.738;20.394;2022-10-19T19:26:24;12.48;;;6.13;;
57409;SDS011;46044;44.738;20.394;2022-10-19T19:28:56;11.25;;;5.78;;
57409;SDS011;46044;44.738;20.394;2022-10-19T19:31:23;10.43;;;6.05;;
57409;SDS011;46044;44.738;20.394;2022-10-19T19:33:58;11.57;;;6.32;;
57409;SDS011;46044;44.738;20.394;2022-10-19T19:36:28;12.27;;;6.63;;
57409;SDS011;46044;44.738;20.394;2022-10-19T19:38:55;11.80;;;6.10;;
57409;SDS011;46044;44.738;20.394;2022-10-19T19:41:24;13.02;;;6.70;;
57409;SDS011;46044;44.738;20.394;2022-10-19T19:43:50;12.50;;;6.35;;
57409;SDS011;46044;44.738;20.394;2022-10-19T19:46:19;12.65;;;6.65;;
57409;SDS011;46044;44.738;20.394;2022-10-19T19:48:47;12.73;;;7.13;;
57409;SDS011;46044;44.738;20.394;2022-10-19T19:51:15;12.70;;;6.85;;
57409;SDS011;46044;44.738;20.394;2022-10-19T19:53:44;12.43;;;6.90;;
57409;SDS011;46044;44.738;20.394;2022-10-19T19:56:14;14.52;;;7.72;;
57409;SDS011;46044;44.738;20.394;2022-10-19T19:58:41;11.57;;;6.75;;
57409;SDS011;46044;44.738;20.394;2022-10-19T20:01:13;14.23;;;7.15;;
57409;SDS011;46044;44.738;20.394;2022-10-19T20:03:43;15.35;;;6.00;;
57409;SDS011;46044;44.738;20.394;2022-10-19T20:06:10;13.27;;;6.65;;
57409;SDS011;46044;44.738;20.394;2022-10-19T20:08:39;14.23;;;6.75;;
57409;SDS011;46044;44.738;20.394;2022-10-19T20:11:12;12.63;;;6.15;;
57409;SDS011;46044;44.738;20.394;2022-10-19T20:13:41;13.10;;;6.68;;
57409;SDS011;46044;44.738;20.394;2022-10-19T20:16:14;11.60;;;5.50;;
57409;SDS011;46044;44.738;20.394;2022-10-19T20:18:55;13.13;;;5.90;;
57409;SDS011;46044;44.738;20.394;2022-10-19T20:21:34;10.73;;;5.32;;
57409;SDS011;46044;44.738;20.394;2022-10-19T20:24:02;11.05;;;6.30;;
57409;SDS011;46044;44.738;20.394;2022-10-19T20:26:30;12.23;;;6.07;;
57409;SDS011;46044;44.738;20.394;2022-10-19T20:28:56;12.90;;;5.05;;
57409;SDS011;46044;44.738;20.394;2022-10-19T20:31:23;11.93;;;6.40;;
57409;SDS011;46044;44.738;20.394;2022-10-19T20:33:56;11.35;;;5.57;;
57409;SDS011;46044;44.738;20.394;2022-10-19T20:36:26;10.95;;;5.35;;
57409;SDS011;46044;44.738;20.394;2022-10-19T20:38:55;10.25;;;5.10;;
57409;SDS011;46044;44.738;20.394;2022-10-19T20:41:23;11.10;;;5.65;;
57409;SDS011;46044;44.738;20.394;2022-10-19T20:43:50;10.93;;;5.22;;
57409;SDS011;46044;44.738;20.394;2022-10-19T20:46:18;9.35;;;5.00;;
57409;SDS011;46044;44.738;20.394;2022-10-19T20:48:47;10.85;;;5.10;;
57409;SDS011;46044;44.738;20.394;2022-10-19T20:51:19;8.35;;;4.93;;
57409;SDS011;46044;44.738;20.394;2022-10-19T20:53:49;8.15;;;4.68;;
57409;SDS011;46044;44.738;20.394;2022-10-19T20:56:16;11.23;;;5.72;;
57409;SDS011;46044;44.738;20.394;2022-10-19T20:58:48;10.63;;;4.85;;
57409;SDS011;46044;44.738;20.394;2022-10-19T21:01:20;7.97;;;4.78;;
57409;SDS011;46044;44.738;20.394;2022-10-19T21:03:54;12.00;;;4.90;;
57409;SDS011;46044;44.738;20.394;2022-10-19T21:06:42;10.00;;;5.40;;
57409;SDS011;46044;44.738;20.394;2022-10-19T21:09:16;8.38;;;4.65;;
57409;SDS011;46044;44.738;20.394;2022-10-19T21:11:46;7.88;;;4.55;;
57409;SDS011;46044;44.738;20.394;2022-10-19T21:14:27;12.70;;;4.88;;
57409;SDS011;46044;44.738;20.394;2022-10-19T21:16:59;9.73;;;5.15;;
57409;SDS011;46044;44.738;20.394;2022-10-19T21:19:30;11.18;;;4.93;;
57409;SDS011;46044;44.738;20.394;2022-10-19T21:21:59;8.63;;;4.40;;
57409;SDS011;46044;44.738;20.394;2022-10-19T21:24:32;11.43;;;5.18;;
57409;SDS011;46044;44.738;20.394;2022-10-19T21:27:07;7.95;;;4.60;;
57409;SDS011;46044;44.738;20.394;2022-10-19T21:29:47;11.93;;;4.95;;
57409;SDS011;46044;44.738;20.394;2022-10-19T21:32:34;8.60;;;4.95;;
57409;SDS011;46044;44.738;20.394;2022-10-19T21:35:16;11.48;;;4.45;;
57409;SDS011;46044;44.738;20.394;2022-10-19T21:37:44;6.45;;;4.07;;
57409;SDS011;46044;44.738;20.394;2022-10-19T21:40:24;14.02;;;5.30;;
57409;SDS011;46044;44.738;20.394;2022-10-19T21:42:50;8.13;;;4.10;;
57409;SDS011;46044;44.738;20.394;2022-10-19T21:45:16;7.03;;;4.07;;
57409;SDS011;46044;44.738;20.394;2022-10-19T21:47:43;6.82;;;3.47;;
57409;SDS011;46044;44.738;20.394;2022-10-19T21:50:15;5.85;;;3.53;;
57409;SDS011;46044;44.738;20.394;2022-10-19T21:53:00;7.05;;;3.80;;
57409;SDS011;46044;44.738;20.394;2022-10-19T21:55:32;8.15;;;4.40;;
57409;SDS011;46044;44.738;20.394;2022-10-19T21:58:09;14.70;;;5.15;;
57409;SDS011;46044;44.738;20.394;2022-10-19T22:00:35;11.30;;;5.83;;
57409;SDS011;46044;44.738;20.394;2022-10-19T22:05:50;9.73;;;4.93;;
57409;SDS011;46044;44.738;20.394;2022-10-19T22:08:29;7.40;;;4.80;;
57409;SDS011;46044;44.738;20.394;2022-10-19T22:11:03;12.82;;;5.38;;
57409;SDS011;46044;44.738;20.394;2022-10-19T22:13:32;8.90;;;4.40;;
57409;SDS011;46044;44.738;20.394;2022-10-19T22:16:04;10.18;;;4.57;;
57409;SDS011;46044;44.738;20.394;2022-10-19T22:18:40;8.52;;;4.55;;
57409;SDS011;46044;44.738;20.394;2022-10-19T22:21:11;8.70;;;4.88;;
57409;SDS011;46044;44.738;20.394;2022-10-19T22:24:05;7.72;;;4.85;;
